Time;durP1;ratioP1;P1;durP2;ratioP2;P2;SDS_P1;SDS_P2;PMS_P1;PMS_P2;Temp;Humidity;BMP_temperature;BMP_pressure;BME280_temperature;BME280_humidity;BME280_pressure;Samples;Min_cycle;Max_cycle;Signal;HPM_P1;HPM_P2
2022/04/21 00:00:00;;;;;;;8.47;5.80;;;9.00;99.90;;;;;;5116234;27;20057;-84
2022/04/21 00:02:26;;;;;;;11.38;7.00;;;9.00;99.90;;;;;;5132475;27;20280;-84
2022/04/21 00:04:52;;;;;;;10.83;6.47;;;9.00;99.90;;;;;;5133155;27;20148;-84
2022/04/21 00:07:17;;;;;;;9.93;6.00;;;9.00;99.90;;;;;;5098342;27;20046;-83
2022/04/21 00:09:43;;;;;;;10.17;6.57;;;8.90;99.90;;;;;;5115651;27;20057;-83
2022/04/21 00:12:10;;;;;;;10.97;6.30;;;9.00;99.90;;;;;;5132272;27;20062;-83
2022/04/21 00:14:35;;;;;;;10.57;6.90;;;8.90;99.90;;;;;;5127829;27;20051;-83
2022/04/21 00:17:01;;;;;;;10.47;6.60;;;8.90;99.90;;;;;;5133394;27;20153;-84
2022/04/21 00:19:27;;;;;;;9.23;6.70;;;8.90;99.90;;;;;;5098160;27;20281;-83
2022/04/21 00:24:37;;;;;;;10.50;6.82;;;8.90;99.90;;;;;;5130950;27;20046;-85
2022/04/21 00:27:02;;;;;;;10.17;6.97;;;8.90;99.90;;;;;;5132677;27;20039;-83
2022/04/21 00:29:28;;;;;;;11.02;7.55;;;8.90;99.90;;;;;;5127186;27;20039;-84
2022/04/21 00:31:54;;;;;;;14.47;6.90;;;8.80;99.90;;;;;;5115603;27;20122;-84
2022/04/21 00:34:19;;;;;;;13.77;7.70;;;8.80;99.90;;;;;;5132282;27;20281;-83
2022/04/21 00:36:45;;;;;;;11.43;7.13;;;8.80;99.90;;;;;;5115185;27;20039;-83
2022/04/21 00:39:11;;;;;;;13.85;7.60;;;8.80;99.90;;;;;;5114833;27;20051;-84
2022/04/21 00:41:37;;;;;;;13.60;8.38;;;8.80;99.90;;;;;;5127322;27;20031;-84
2022/04/21 00:44:03;;;;;;;11.93;7.83;;;8.80;99.90;;;;;;5115107;27;20043;-83
2022/04/21 00:46:29;;;;;;;9.80;7.85;;;8.70;99.90;;;;;;5131986;27;20047;-83
2022/04/21 00:48:55;;;;;;;;;;;8.70;99.90;;;;;;5115649;27;20118;-83
2022/04/21 00:51:23;;;;;;;14.25;8.55;;;8.70;99.90;;;;;;5131632;27;20009;-83
2022/04/21 00:53:49;;;;;;;14.40;8.57;;;8.70;99.90;;;;;;5131975;27;20035;-84
2022/04/21 00:56:15;;;;;;;13.90;8.70;;;8.60;99.90;;;;;;5130649;27;20041;-82
2022/04/21 00:58:43;;;;;;;11.45;7.82;;;8.60;99.90;;;;;;5130879;27;20047;-84
2022/04/21 01:02:46;;;;;;;13.65;8.60;;;8.60;99.90;;;;;;5130377;27;20113;-82
2022/04/21 01:03:56;;;;;;;14.02;8.43;;;8.60;99.90;;;;;;5128185;27;20483;-83
2022/04/21 01:06:25;;;;;;;14.13;8.70;;;8.60;99.90;;;;;;5114684;27;20491;-83
2022/04/21 01:08:50;;;;;;;13.50;8.90;;;8.50;99.90;;;;;;5114536;27;20122;-82
2022/04/21 01:11:18;;;;;;;14.77;8.95;;;8.90;99.90;;;;;;5114489;27;20126;-84
2022/04/21 01:13:43;;;;;;;13.55;8.77;;;8.60;99.90;;;;;;5114738;27;20443;-85
2022/04/21 01:16:09;;;;;;;16.43;9.27;;;8.60;99.90;;;;;;5131277;27;20122;-84
2022/04/21 01:18:35;;;;;;;13.87;8.70;;;8.60;99.90;;;;;;5131848;27;20038;-83
2022/04/21 01:21:00;;;;;;;12.97;8.33;;;9.10;99.90;;;;;;5114764;27;20276;-83
2022/04/21 01:23:26;;;;;;;13.03;8.93;;;8.60;99.90;;;;;;5130577;27;20046;-83
2022/04/21 01:25:53;;;;;;;16.17;9.10;;;8.60;99.90;;;;;;5114486;27;20042;-83
2022/04/21 01:28:19;;;;;;;17.08;9.15;;;8.60;99.90;;;;;;5131352;27;20035;-83
2022/04/21 01:30:44;;;;;;;14.77;9.00;;;8.60;99.90;;;;;;5131052;27;20035;-83
2022/04/21 01:33:10;;;;;;;14.43;9.43;;;9.20;99.90;;;;;;5130869;27;20504;-83
2022/04/21 01:35:37;;;;;;;15.00;9.23;;;8.60;99.90;;;;;;5114011;27;20035;-84
2022/04/21 01:43:31;;;;;;;14.18;9.93;;;8.60;99.90;;;;;;5121150;27;20100;-83
2022/04/21 01:45:57;;;;;;;15.88;8.93;;;8.60;99.90;;;;;;5089047;27;20039;-84
2022/04/21 01:48:24;;;;;;;14.38;9.00;;;8.50;99.90;;;;;;5107578;27;20423;-83
2022/04/21 01:50:49;;;;;;;15.27;9.50;;;8.50;99.90;;;;;;5098658;27;20088;-83
2022/04/21 01:53:15;;;;;;;14.50;9.73;;;8.50;99.90;;;;;;5108198;28;20039;-83
2022/04/21 01:55:41;;;;;;;15.80;10.63;;;8.30;99.90;;;;;;5095343;28;20496;-84
2022/04/21 01:58:07;;;;;;;16.90;10.05;;;8.40;99.90;;;;;;5116829;27;20297;-83
2022/04/21 02:00:33;;;;;;;;;;;8.40;99.90;;;;;;5095493;28;20484;-84
2022/04/21 02:02:59;;;;;;;15.70;10.30;;;8.40;99.90;;;;;;5115042;27;19916;-83
2022/04/21 02:05:24;;;;;;;14.07;10.17;;;8.30;99.90;;;;;;5127213;27;20395;-84
2022/04/21 02:07:50;;;;;;;17.40;10.47;;;8.30;99.90;;;;;;5100735;27;20031;-84
2022/04/21 02:10:18;;;;;;;16.10;10.77;;;8.30;99.90;;;;;;5114622;27;20031;-84
2022/04/21 02:12:45;;;;;;;15.57;10.82;;;8.30;99.90;;;;;;5124172;27;20281;-83
2022/04/21 02:15:12;;;;;;;18.08;10.93;;;8.30;99.90;;;;;;5106119;28;20507;-83
2022/04/21 02:17:39;;;;;;;15.98;10.30;;;8.40;99.90;;;;;;5106276;28;20033;-85
2022/04/21 02:20:08;;;;;;;17.52;10.65;;;8.40;99.90;;;;;;5086749;28;20043;-84
2022/04/21 02:22:37;;;;;;;15.95;10.23;;;8.20;99.90;;;;;;5117196;28;20035;-84
2022/04/21 02:25:06;;;;;;;15.60;10.65;;;8.20;99.90;;;;;;5118097;28;20039;-84
2022/04/21 02:27:33;;;;;;;17.23;11.05;;;8.20;99.90;;;;;;5103240;28;20050;-84
2022/04/21 02:29:59;;;;;;;17.65;10.65;;;8.20;99.90;;;;;;5100212;28;20035;-84
2022/04/21 02:32:25;;;;;;;15.98;10.60;;;8.20;99.90;;;;;;5124601;28;20122;-84
2022/04/21 02:34:53;;;;;;;16.75;10.68;;;8.10;99.90;;;;;;5132618;27;20096;-84
2022/04/21 02:37:20;;;;;;;17.17;10.82;;;8.10;99.90;;;;;;5102373;27;20035;-83
2022/04/21 02:39:45;;;;;;;15.23;9.88;;;8.10;99.90;;;;;;5117055;27;20035;-84
2022/04/21 02:42:11;;;;;;;16.67;10.47;;;8.10;99.90;;;;;;5105042;27;20515;-83
2022/04/21 02:44:38;;;;;;;16.00;11.00;;;8.10;99.90;;;;;;5127727;27;20092;-84
2022/04/21 02:47:06;;;;;;;17.77;11.43;;;8.00;99.90;;;;;;5124440;27;20043;-83
2022/04/21 02:49:32;;;;;;;16.92;11.02;;;8.00;99.90;;;;;;5128568;27;20068;-84
2022/04/21 02:51:58;;;;;;;18.45;10.98;;;8.00;99.90;;;;;;5104018;28;20047;-83
2022/04/21 02:57:20;;;;;;;14.60;9.73;;;8.00;99.90;;;;;;5114399;27;20047;-84
2022/04/21 02:59:50;;;;;;;16.92;10.60;;;8.00;99.90;;;;;;5101338;28;20407;-83
2022/04/21 03:02:17;;;;;;;14.80;10.73;;;7.90;99.90;;;;;;5123320;27;20038;-84
2022/04/21 03:04:42;;;;;;;15.80;10.25;;;7.90;99.90;;;;;;5126166;27;20042;-84
2022/04/21 03:07:08;;;;;;;15.57;10.60;;;7.90;99.90;;;;;;5104481;27;20398;-84
2022/04/21 03:09:34;;;;;;;16.10;10.90;;;7.90;99.90;;;;;;5084336;27;20176;-84
2022/04/21 03:12:04;;;;;;;14.07;10.37;;;7.90;99.90;;;;;;5126640;27;20046;-84
2022/04/21 03:14:30;;;;;;;15.23;10.80;;;7.90;99.90;;;;;;5104684;27;20278;-83
2022/04/21 03:16:56;;;;;;;16.67;11.05;;;8.00;99.90;;;;;;5120634;27;21185;-83
2022/04/21 03:19:22;;;;;;;;;;;7.80;99.90;;;;;;5107741;27;20525;-83
2022/04/21 03:24:32;;;;;;;14.65;10.07;;;7.80;99.90;;;;;;5124465;27;20066;-84
2022/04/21 03:26:58;;;;;;;15.25;10.32;;;7.70;99.90;;;;;;5103236;27;20043;-84
2022/04/21 03:29:24;;;;;;;16.47;10.17;;;7.70;99.90;;;;;;5100527;28;20054;-83
2022/04/21 03:31:50;;;;;;;16.88;9.63;;;7.70;99.90;;;;;;5123284;27;20118;-83
2022/04/21 03:34:18;;;;;;;16.65;9.88;;;7.70;99.90;;;;;;5117404;27;20047;-84
2022/04/21 03:36:49;;;;;;;14.13;9.77;;;7.60;99.90;;;;;;5125481;27;20113;-83
2022/04/21 03:39:20;;;;;;;14.98;9.20;;;7.70;99.90;;;;;;5119491;27;20085;-84
2022/04/21 03:41:46;;;;;;;14.07;8.80;;;7.60;99.90;;;;;;5106574;27;20027;-83
2022/04/21 03:44:12;;;;;;;13.10;8.57;;;7.60;99.90;;;;;;5129308;27;20047;-83
2022/04/21 03:46:38;;;;;;;13.10;8.10;;;7.80;99.90;;;;;;5130820;27;20058;-84
2022/04/21 03:49:04;;;;;;;;;;;7.50;99.90;;;;;;5132610;28;20482;-83
2022/04/21 03:51:31;;;;;;;11.68;7.95;;;7.90;99.90;;;;;;5131497;28;19998;-84
2022/04/21 03:53:57;;;;;;;12.32;8.70;;;7.50;99.90;;;;;;5131680;28;20047;-84
2022/04/21 03:56:23;;;;;;;12.98;8.70;;;7.50;99.90;;;;;;5131102;28;20049;-83
2022/04/21 03:58:49;;;;;;;11.93;8.07;;;7.40;99.90;;;;;;5131796;28;20217;-84
2022/04/21 04:01:16;;;;;;;12.38;8.85;;;7.50;99.90;;;;;;5132320;28;20288;-84
2022/04/21 04:03:42;;;;;;;12.07;8.45;;;7.70;99.90;;;;;;5131421;28;20115;-84
2022/04/21 04:10:51;;;;;;;12.13;8.35;;;7.40;99.90;;;;;;5131484;27;20035;-84
2022/04/21 04:11:39;;;;;;;11.73;8.50;;;7.40;99.90;;;;;;5131272;28;20043;-84
2022/04/21 04:14:06;;;;;;;13.90;8.20;;;7.40;99.90;;;;;;5132799;28;20034;-84
2022/04/21 04:16:36;;;;;;;11.88;8.35;;;7.30;99.90;;;;;;5097546;28;20539;-82
2022/04/21 04:19:05;;;;;;;11.75;8.07;;;7.30;99.90;;;;;;5131425;28;20070;-83
2022/04/21 04:21:31;;;;;;;12.93;8.48;;;7.30;99.90;;;;;;5130888;28;20039;-83
2022/04/21 04:23:58;;;;;;;14.20;8.43;;;7.20;99.90;;;;;;5126745;28;20447;-82
2022/04/21 04:26:23;;;;;;;13.95;9.18;;;7.20;99.90;;;;;;5130721;28;20078;-83
2022/04/21 04:28:49;;;;;;;12.80;8.35;;;7.20;99.90;;;;;;5114944;28;20070;-84
2022/04/21 04:31:15;;;;;;;14.57;8.47;;;7.20;99.90;;;;;;5114802;28;20047;-83
2022/04/21 04:33:41;;;;;;;12.88;8.68;;;7.20;99.90;;;;;;5130767;28;20039;-84
2022/04/21 04:36:10;;;;;;;13.68;8.65;;;7.10;99.90;;;;;;5131073;28;20035;-82
2022/04/21 04:38:37;;;;;;;13.10;9.30;;;8.00;99.90;;;;;;5126384;28;20062;-84
2022/04/21 04:42:16;;;;;;;14.40;9.02;;;7.20;99.90;;;;;;5131372;28;20514;-85
2022/04/21 04:43:48;;;;;;;13.25;8.82;;;7.20;99.90;;;;;;5122484;27;141474;-86
2022/04/21 04:48:58;;;;;;;13.82;8.90;;;7.20;99.90;;;;;;5123939;27;20058;-85
2022/04/21 04:51:24;;;;;;;12.97;8.90;;;7.20;99.90;;;;;;5095120;27;20036;-85
2022/04/21 04:53:49;;;;;;;14.80;9.15;;;7.10;99.90;;;;;;5124733;27;20034;-87
2022/04/21 04:56:15;;;;;;;12.77;8.87;;;7.40;99.90;;;;;;5109693;27;20066;-85
2022/04/21 04:58:40;;;;;;;13.63;8.93;;;7.40;99.90;;;;;;5086881;28;20047;-85
2022/04/21 05:01:06;;;;;;;16.60;9.17;;;7.20;99.90;;;;;;5116990;27;20532;-86
2022/04/21 05:03:32;;;;;;;13.43;8.93;;;7.70;99.90;;;;;;5103504;27;20039;-86
2022/04/21 05:05:58;;;;;;;16.27;9.53;;;7.20;99.90;;;;;;5123849;27;20092;-87
2022/04/21 05:08:24;;;;;;;16.15;9.25;;;7.80;99.90;;;;;;5109088;27;20042;-86
2022/04/21 05:10:53;;;;;;;12.80;9.20;;;7.20;99.90;;;;;;5104030;27;20399;-86
2022/04/21 05:13:19;;;;;;;13.20;9.13;;;7.30;99.90;;;;;;5105654;27;20507;-86
2022/04/21 05:15:44;;;;;;;13.40;9.85;;;7.30;99.90;;;;;;5116843;27;20043;-87
2022/04/21 05:18:10;;;;;;;13.10;9.53;;;7.30;99.90;;;;;;5123136;27;20527;-87
2022/04/21 05:20:36;;;;;;;14.38;9.18;;;7.30;99.90;;;;;;5103828;27;20071;-86
2022/04/21 05:23:06;;;;;;;13.63;9.32;;;7.40;99.90;;;;;;5120479;27;20059;-85
2022/04/21 05:25:36;;;;;;;15.00;10.07;;;7.40;99.90;;;;;;5105632;27;20139;-85
2022/04/21 05:28:03;;;;;;;15.82;9.88;;;7.50;99.90;;;;;;5104561;27;20046;-86
2022/04/21 05:33:15;;;;;;;13.20;9.13;;;7.70;99.90;;;;;;5103327;27;20611;-86
2022/04/21 05:35:41;;;;;;;15.75;9.23;;;7.70;99.90;;;;;;5115543;27;20055;-85
2022/04/21 05:38:07;;;;;;;14.80;9.10;;;7.80;99.90;;;;;;5087155;27;20042;-85
2022/04/21 05:40:33;;;;;;;14.15;9.07;;;7.90;99.90;;;;;;5116272;27;20492;-85
2022/04/21 05:43:05;;;;;;;12.07;9.02;;;8.00;99.90;;;;;;5118109;27;20038;-86
2022/04/21 05:45:31;;;;;;;13.27;8.52;;;8.10;99.90;;;;;;5090931;28;20052;-85
2022/04/21 05:47:57;;;;;;;15.82;9.18;;;8.30;99.90;;;;;;5093433;28;20400;-86
2022/04/21 05:50:25;;;;;;;14.80;9.45;;;8.40;99.90;;;;;;5093241;28;20042;-86
2022/04/21 05:52:55;;;;;;;12.02;8.50;;;8.50;99.90;;;;;;5108035;28;20039;-86
2022/04/21 05:55:21;;;;;;;13.27;8.85;;;8.60;99.90;;;;;;5093381;28;20039;-85
2022/04/21 05:57:46;;;;;;;11.02;7.72;;;8.80;99.90;;;;;;5092877;28;20059;-86
2022/04/21 06:00:12;;;;;;;12.13;8.57;;;8.90;99.90;;;;;;5110340;28;20124;-85
2022/04/21 06:02:38;;;;;;;11.02;7.78;;;9.10;99.90;;;;;;5092853;28;20038;-85
2022/04/21 06:05:05;;;;;;;12.55;7.55;;;9.20;99.90;;;;;;5093531;28;20036;-83
2022/04/21 06:07:31;;;;;;;13.05;7.63;;;9.30;99.90;;;;;;5110098;28;20380;-85
2022/04/21 06:09:56;;;;;;;9.32;7.03;;;9.50;99.90;;;;;;5093343;28;20050;-84
2022/04/21 06:12:25;;;;;;;10.50;6.95;;;9.50;99.90;;;;;;5110566;28;20035;-84
2022/04/21 06:14:52;;;;;;;11.52;6.85;;;9.60;99.90;;;;;;5093310;28;20074;-85
2022/04/21 06:17:17;;;;;;;;;;;9.80;99.90;;;;;;5110611;28;20936;-85
2022/04/21 06:19:43;;;;;;;9.52;7.07;;;9.90;99.90;;;;;;5109557;28;20021;-86
2022/04/21 06:22:09;;;;;;;11.60;6.63;;;10.10;99.90;;;;;;5076245;28;20101;-87
2022/04/21 06:24:35;;;;;;;8.10;5.90;;;10.20;99.90;;;;;;5093111;28;20032;-86
2022/04/21 06:27:03;;;;;;;9.15;6.10;;;10.30;99.90;;;;;;5093023;28;20119;-87
2022/04/21 06:29:30;;;;;;;8.68;5.60;;;10.40;99.90;;;;;;5092483;28;20039;-86
2022/04/21 06:32:15;;;;;;;7.95;5.75;;;10.50;99.90;;;;;;5092811;28;20440;-86
2022/04/21 06:34:41;;;;;;;7.15;5.53;;;10.70;99.90;;;;;;5107363;28;20483;-86
2022/04/21 06:37:07;;;;;;;6.25;5.10;;;11.20;99.90;;;;;;5091466;28;20032;-86
2022/04/21 06:39:32;;;;;;;6.73;4.30;;;11.70;99.90;;;;;;5075429;28;20069;-87
2022/04/21 06:42:36;;;;;;;7.20;4.87;;;12.10;99.90;;;;;;5108106;28;20359;-84
2022/04/21 06:48:03;;;;;;;7.50;4.43;;;12.80;99.90;;;;;;5094221;28;20048;-85
2022/04/21 06:50:33;;;;;;;6.68;4.40;;;12.90;99.90;;;;;;5091916;28;20101;-85
2022/04/21 06:53:01;;;;;;;4.53;3.60;;;13.10;99.90;;;;;;5090645;28;20118;-85
2022/04/21 06:55:27;;;;;;;5.43;4.20;;;13.50;99.90;;;;;;5109197;28;20495;-87
2022/04/21 06:57:53;;;;;;;4.43;3.60;;;13.80;99.90;;;;;;5091757;28;20096;-86
2022/04/21 07:00:18;;;;;;;6.07;3.97;;;13.70;99.90;;;;;;5092885;28;20073;-85
2022/04/21 07:02:45;;;;;;;6.00;3.75;;;13.80;99.90;;;;;;5091791;28;20043;-86
2022/04/21 07:05:14;;;;;;;5.70;3.25;;;13.90;99.90;;;;;;5110453;28;20040;-84
2022/04/21 07:07:41;;;;;;;4.72;3.03;;;14.10;99.90;;;;;;5093970;28;20043;-86
2022/04/21 07:10:07;;;;;;;4.80;3.67;;;14.10;99.90;;;;;;5109096;28;20035;-85
2022/04/21 07:12:34;;;;;;;4.88;3.20;;;14.40;99.90;;;;;;5110794;28;20043;-85
2022/04/21 07:15:05;;;;;;;6.10;3.13;;;14.50;99.90;;;;;;5092533;28;20039;-86
2022/04/21 07:17:34;;;;;;;6.75;3.03;;;14.80;99.90;;;;;;5092607;28;20032;-86
2022/04/21 07:20:00;;;;;;;3.90;2.50;;;15.00;99.90;;;;;;5110103;28;20035;-86
2022/04/21 07:22:26;;;;;;;3.97;2.67;;;15.10;99.90;;;;;;5079470;28;20047;-85
2022/04/21 07:24:56;;;;;;;3.55;2.53;;;15.00;99.90;;;;;;5095940;28;20040;-85
2022/04/21 07:27:22;;;;;;;3.53;2.28;;;14.90;99.90;;;;;;5112353;28;20076;-84
2022/04/21 07:29:49;;;;;;;5.85;2.28;;;15.20;99.90;;;;;;5096484;28;20467;-86
2022/04/21 07:32:15;;;;;;;;;;;15.20;99.90;;;;;;5113518;28;20126;-88
2022/04/21 07:34:41;;;;;;;4.60;2.30;;;15.50;98.90;;;;;;5095973;28;20379;-85
2022/04/21 07:37:09;;;;;;;4.60;2.40;;;15.40;98.10;;;;;;5096273;28;20093;-87
2022/04/21 07:39:36;;;;;;;5.55;2.63;;;15.50;98.40;;;;;;5113053;28;20040;-80
2022/04/21 07:42:02;;;;;;;3.65;2.00;;;15.60;97.90;;;;;;5113327;28;20035;-81
2022/04/21 07:44:28;;;;;;;2.47;1.75;;;15.50;97.40;;;;;;5121078;27;20043;-81
2022/04/21 07:46:54;;;;;;;2.80;1.75;;;15.90;96.80;;;;;;5133153;27;20046;-80
2022/04/21 07:54:52;;;;;;;3.00;1.80;;;16.10;96.60;;;;;;5094379;27;20039;-83
2022/04/21 07:57:17;;;;;;;2.70;1.60;;;16.20;95.10;;;;;;5135635;27;20084;-83
2022/04/21 07:59:44;;;;;;;3.53;1.77;;;16.20;95.70;;;;;;5118797;27;20039;-81
2022/04/21 08:02:09;;;;;;;1.98;1.67;;;16.40;95.70;;;;;;5117882;27;20047;-83
2022/04/21 08:08:16;;;;;;;2.35;1.83;;;16.80;94.40;;;;;;5116205;28;20034;-83
2022/04/21 08:10:41;;;;;;;4.13;2.13;;;16.80;94.90;;;;;;5114671;28;20126;-84
2022/04/21 08:13:08;;;;;;;2.65;2.00;;;16.70;94.70;;;;;;5108368;27;20042;-84
2022/04/21 08:15:35;;;;;;;3.08;1.92;;;17.10;94.50;;;;;;5117780;27;20118;-83
2022/04/21 08:18:05;;;;;;;2.53;1.65;;;17.20;93.90;;;;;;5134111;27;20118;-82
2022/04/21 08:20:33;;;;;;;3.03;1.90;;;17.10;93.80;;;;;;5118242;27;20066;-83
2022/04/21 08:22:58;;;;;;;4.28;2.03;;;17.10;93.70;;;;;;5101040;27;20468;-83
2022/04/21 08:33:36;;;;;;;3.72;1.92;;;17.80;93.40;;;;;;5125721;27;20043;-81
2022/04/21 08:36:03;;;;;;;6.00;1.95;;;17.70;92.60;;;;;;5112031;27;20129;-79
2022/04/21 08:38:30;;;;;;;2.30;1.95;;;18.00;92.30;;;;;;5130805;27;20027;-80
2022/04/21 08:41:03;;;;;;;3.00;1.75;;;18.20;92.20;;;;;;5125868;27;20043;-79
2022/04/21 08:43:30;;;;;;;2.67;1.65;;;18.20;92.20;;;;;;5116120;27;20043;-79
2022/04/21 08:45:56;;;;;;;4.15;1.70;;;18.40;92.20;;;;;;5145357;27;20442;-84
2022/04/21 08:48:23;;;;;;;3.80;1.80;;;18.80;91.20;;;;;;5150265;27;20077;-84
2022/04/21 08:50:50;;;;;;;2.65;1.90;;;18.70;91.00;;;;;;5080297;27;20030;-83
2022/04/21 08:53:21;;;;;;;3.22;1.85;;;18.80;90.00;;;;;;5134169;27;20041;-83
2022/04/21 08:55:50;;;;;;;2.55;1.90;;;18.70;90.30;;;;;;5145183;27;20045;-82
2022/04/21 08:58:16;;;;;;;2.50;2.08;;;18.90;90.30;;;;;;5127849;27;20041;-82
2022/04/21 09:00:43;;;;;;;2.55;1.90;;;18.90;90.70;;;;;;5140324;27;20493;-82
2022/04/21 09:03:11;;;;;;;3.05;2.15;;;18.80;90.90;;;;;;5121902;27;20840;-82
2022/04/21 09:05:38;;;;;;;3.20;2.22;;;18.80;90.30;;;;;;5124022;27;20039;-83
2022/04/21 09:08:04;;;;;;;2.95;2.25;;;18.80;90.30;;;;;;5129437;27;20050;-83
2022/04/21 09:10:32;;;;;;;4.40;2.45;;;19.00;90.00;;;;;;5126047;27;20090;-83
2022/04/21 09:13:00;;;;;;;2.60;2.10;;;18.80;90.20;;;;;;5122859;27;20390;-83
2022/04/21 09:15:31;;;;;;;5.38;2.40;;;19.30;90.10;;;;;;5140291;27;20034;-83
2022/04/21 09:18:06;;;;;;;3.30;2.42;;;19.30;90.20;;;;;;5119786;27;20367;-81
2022/04/21 09:20:33;;;;;;;4.05;2.42;;;19.10;89.80;;;;;;5140058;27;20121;-83
2022/04/21 09:23:05;;;;;;;3.58;2.60;;;18.90;89.30;;;;;;5138213;27;20066;-82
2022/04/21 09:25:42;;;;;;;6.00;2.50;;;19.30;90.70;;;;;;5134056;27;20109;-82
2022/04/21 09:28:23;;;;;;;3.75;1.98;;;19.60;90.00;;;;;;5144691;27;20053;-83
2022/04/21 09:30:55;;;;;;;3.50;2.10;;;20.30;89.00;;;;;;5140622;27;20098;-82
2022/04/21 09:33:35;;;;;;;3.55;2.13;;;20.20;88.70;;;;;;5142655;27;20065;-82
2022/04/21 09:36:03;;;;;;;5.03;2.50;;;20.40;87.70;;;;;;5133592;27;20031;-81
2022/04/21 09:38:29;;;;;;;3.40;2.20;;;20.50;86.50;;;;;;5133340;27;20140;-81
2022/04/21 09:40:55;;;;;;;4.75;2.17;;;20.80;86.60;;;;;;5135434;27;20034;-82
2022/04/21 09:43:29;;;;;;;3.00;2.15;;;20.40;86.40;;;;;;5129618;27;20027;-82
2022/04/21 09:46:20;;;;;;;3.67;2.38;;;20.70;86.20;;;;;;5114585;27;20043;-82
2022/04/21 09:48:51;;;;;;;3.85;2.50;;;20.40;86.30;;;;;;5111699;27;20037;-82
2022/04/21 09:51:22;;;;;;;4.68;2.90;;;20.70;87.10;;;;;;5133781;27;20125;-82
2022/04/21 09:53:49;;;;;;;4.78;2.58;;;21.00;86.20;;;;;;5112093;27;20038;-81
2022/04/21 09:56:15;;;;;;;3.65;2.45;;;20.50;85.50;;;;;;5094985;27;20038;-81
2022/04/21 09:58:42;;;;;;;;;;;20.90;85.80;;;;;;5127426;27;20042;-81
2022/04/21 10:01:08;;;;;;;3.23;2.27;;;21.30;84.70;;;;;;5122339;27;19915;-81
2022/04/21 10:03:34;;;;;;;5.80;2.85;;;20.80;84.50;;;;;;5129665;27;20038;-81
2022/04/21 10:06:01;;;;;;;;;;;21.30;83.70;;;;;;5136385;27;20041;-81
2022/04/21 10:08:29;;;;;;;3.75;2.50;;;21.00;84.30;;;;;;5111711;27;20010;-81
2022/04/21 10:10:56;;;;;;;4.13;2.55;;;20.90;83.60;;;;;;5116898;27;20027;-82
2022/04/21 10:13:22;;;;;;;3.55;2.50;;;21.10;85.00;;;;;;5078640;27;20065;-82
2022/04/21 10:15:50;;;;;;;4.78;2.65;;;21.40;83.30;;;;;;5133303;27;20030;-82
2022/04/21 10:18:16;;;;;;;3.92;2.40;;;21.60;84.40;;;;;;5130067;27;20073;-82
2022/04/21 10:20:44;;;;;;;3.58;2.15;;;21.80;81.80;;;;;;5143454;27;20042;-82
2022/04/21 10:23:15;;;;;;;3.25;2.15;;;21.70;82.20;;;;;;5135714;27;20039;-82
2022/04/21 10:25:42;;;;;;;3.20;2.10;;;22.10;84.00;;;;;;5120180;27;20035;-82
2022/04/21 10:28:41;;;;;;;3.20;2.03;;;22.40;81.20;;;;;;5114299;27;20138;-83
2022/04/21 10:31:32;;;;;;;4.22;2.55;;;22.20;81.10;;;;;;5127462;27;20498;-82
2022/04/21 10:34:01;;;;;;;3.50;2.20;;;21.80;81.20;;;;;;5131547;27;20042;-82
2022/04/21 10:36:46;;;;;;;4.35;2.08;;;21.80;82.10;;;;;;5123416;27;20694;-83
2022/04/21 10:39:18;;;;;;;3.50;1.83;;;22.10;80.70;;;;;;5140655;27;20046;-83
2022/04/21 10:41:45;;;;;;;4.03;1.92;;;21.50;79.20;;;;;;5146841;27;20075;-83
2022/04/21 10:44:15;;;;;;;2.63;1.65;;;21.50;79.70;;;;;;5139711;27;20051;-84
2022/04/21 10:46:42;;;;;;;4.20;2.08;;;21.80;80.10;;;;;;5137060;27;20054;-78
2022/04/21 10:49:09;;;;;;;3.40;2.00;;;22.00;81.00;;;;;;5131911;27;20398;-83
2022/04/21 10:57:18;;;;;;;3.67;2.20;;;21.40;81.20;;;;;;5102986;27;20062;-89
2022/04/21 11:00:08;;;;;;;3.25;1.80;;;21.10;81.20;;;;;;5084627;27;20074;-85
2022/04/21 11:02:42;;;;;;;4.97;2.05;;;21.70;79.90;;;;;;5149280;27;20039;-88
2022/04/21 11:05:23;;;;;;;4.20;1.85;;;20.80;79.30;;;;;;5122833;27;20086;-88
2022/04/21 11:07:57;;;;;;;3.00;1.75;;;21.20;79.00;;;;;;5144494;27;20137;-86
2022/04/21 11:10:37;;;;;;;5.65;1.75;;;21.50;78.60;;;;;;5138901;27;20125;-85
2022/04/21 11:13:11;;;;;;;2.58;1.60;;;21.80;78.60;;;;;;5133832;27;20036;-86
2022/04/21 11:15:50;;;;;;;3.30;1.95;;;21.90;78.60;;;;;;5137702;27;20099;-86
2022/04/21 11:18:42;;;;;;;4.22;1.80;;;22.50;76.60;;;;;;5124108;27;20038;-84
2022/04/21 11:21:26;;;;;;;2.90;1.83;;;22.30;77.90;;;;;;5119152;27;20038;-85
2022/04/21 11:23:52;;;;;;;3.65;1.42;;;22.60;77.00;;;;;;5124667;27;20041;-85
2022/04/21 11:26:24;;;;;;;;;;;22.60;77.00;;;;;;5126909;27;20034;-85
2022/04/21 11:28:50;;;;;;;3.17;1.88;;;22.90;78.00;;;;;;5118887;27;19922;-84
2022/04/21 11:31:19;;;;;;;;;;;22.90;76.40;;;;;;5104445;27;20055;-84
2022/04/21 11:33:45;;;;;;;4.90;2.03;;;23.00;77.50;;;;;;5126561;27;19915;-85
2022/04/21 11:36:13;;;;;;;2.97;1.60;;;22.70;76.40;;;;;;5108206;27;20038;-83
2022/04/21 11:38:47;;;;;;;3.53;1.70;;;23.00;77.00;;;;;;5159428;27;20046;-85
2022/04/21 11:41:15;;;;;;;5.47;2.10;;;23.30;75.20;;;;;;5118340;27;20042;-85
2022/04/21 11:43:48;;;;;;;3.35;2.00;;;22.90;75.20;;;;;;5096169;27;20046;-86
2022/04/21 11:46:14;;;;;;;2.30;1.77;;;22.80;76.10;;;;;;5097974;27;20055;-87
2022/04/21 11:48:41;;;;;;;2.97;2.00;;;23.10;75.90;;;;;;5109945;27;20118;-87
2022/04/21 11:51:12;;;;;;;3.47;2.15;;;23.00;75.30;;;;;;5094771;27;20039;-86
2022/04/21 11:53:42;;;;;;;4.80;2.20;;;22.70;76.20;;;;;;5096401;27;20077;-86
2022/04/21 11:56:09;;;;;;;2.92;2.03;;;22.90;75.40;;;;;;5113422;27;20042;-85
2022/04/21 11:58:41;;;;;;;4.75;2.28;;;22.40;76.00;;;;;;5093712;27;20411;-84
2022/04/21 12:06:50;;;;;;;4.15;2.05;;;22.10;74.60;;;;;;5113520;27;20039;-85
2022/04/21 12:09:28;;;;;;;3.50;1.75;;;21.60;75.40;;;;;;5095036;27;20444;-85
2022/04/21 12:11:57;;;;;;;5.07;2.20;;;22.20;75.90;;;;;;5115378;27;20042;-85
2022/04/21 12:14:23;;;;;;;2.38;2.00;;;22.70;76.80;;;;;;5111306;27;20074;-85
2022/04/21 12:16:54;;;;;;;3.75;1.88;;;22.50;75.20;;;;;;5076929;27;20031;-85
2022/04/21 12:19:33;;;;;;;2.90;2.17;;;22.70;74.80;;;;;;5117654;27;20081;-84
2022/04/21 12:22:13;;;;;;;3.05;1.88;;;23.10;75.20;;;;;;5093126;27;20036;-85
2022/04/21 12:24:46;;;;;;;3.97;1.90;;;23.30;75.30;;;;;;5075771;28;20043;-85
2022/04/21 12:27:16;;;;;;;3.20;2.30;;;23.20;75.90;;;;;;5107170;27;20047;-84
2022/04/21 12:29:54;;;;;;;2.60;2.20;;;22.90;74.50;;;;;;5118215;27;20040;-85
2022/04/21 12:32:29;;;;;;;3.92;2.30;;;22.60;75.60;;;;;;5116988;27;20122;-86
2022/04/21 12:34:59;;;;;;;4.28;2.88;;;22.60;76.40;;;;;;5110371;27;20039;-85
2022/04/21 12:37:35;;;;;;;4.05;2.45;;;22.00;75.70;;;;;;5095755;27;20031;-86
2022/04/21 12:40:13;;;;;;;4.93;2.83;;;21.60;77.00;;;;;;5116352;27;20479;-85
2022/04/21 12:42:40;;;;;;;3.70;2.45;;;22.00;77.30;;;;;;5115239;27;20753;-85
2022/04/21 12:45:08;;;;;;;3.50;2.45;;;21.80;77.90;;;;;;5111436;27;20065;-85
2022/04/21 12:47:47;;;;;;;4.00;2.47;;;22.20;76.90;;;;;;5110067;27;20065;-84
2022/04/21 12:50:23;;;;;;;4.72;2.15;;;22.30;76.50;;;;;;5130168;27;20147;-85
2022/04/21 12:52:54;;;;;;;2.90;2.40;;;22.50;75.70;;;;;;5128908;27;20494;-84
2022/04/21 12:55:20;;;;;;;4.45;2.15;;;22.50;74.90;;;;;;5128809;27;20092;-84
2022/04/21 12:58:00;;;;;;;;;;;22.70;75.70;;;;;;5130716;27;20495;-84
2022/04/21 13:00:26;;;;;;;4.25;2.03;;;22.80;76.40;;;;;;5128835;27;19941;-83
2022/04/21 13:02:52;;;;;;;;;;;22.40;76.00;;;;;;5108823;27;20169;-82
2022/04/21 13:05:18;;;;;;;3.95;2.42;;;22.50;76.80;;;;;;5107654;27;19958;-83
2022/04/21 13:07:43;;;;;;;;;;;22.40;75.80;;;;;;5112775;27;20478;-84
2022/04/21 13:10:09;;;;;;;4.10;2.50;;;21.40;74.70;;;;;;5124286;27;20007;-85
2022/04/21 13:12:35;;;;;;;;;;;21.60;75.90;;;;;;5095142;27;20035;-82
2022/04/21 13:15:02;;;;;;;3.88;2.30;;;21.30;76.20;;;;;;5105025;27;19938;-83
2022/04/21 13:17:28;;;;;;;6.00;2.47;;;20.90;74.90;;;;;;5129061;27;20065;-84
2022/04/21 13:19:53;;;;;;;;;;;21.40;75.60;;;;;;5095376;27;20038;-82
2022/04/21 13:22:19;;;;;;;3.17;2.30;;;21.50;76.40;;;;;;5111068;27;19953;-83
2022/04/21 13:24:45;;;;;;;5.32;2.40;;;21.60;76.20;;;;;;5127519;27;20042;-83
2022/04/21 13:27:10;;;;;;;5.03;2.38;;;21.60;75.40;;;;;;5129120;27;20035;-86
2022/04/21 13:29:36;;;;;;;3.35;2.15;;;21.70;75.70;;;;;;5112537;27;20070;-83
2022/04/21 13:34:46;;;;;;;4.55;2.60;;;21.50;75.60;;;;;;5127349;27;19968;-84
2022/04/21 13:37:11;;;;;;;;;;;21.80;75.90;;;;;;5104224;27;20039;-83
2022/04/21 13:39:40;;;;;;;3.90;2.33;;;21.80;76.70;;;;;;5106014;27;19962;-85
2022/04/21 13:42:09;;;;;;;6.20;2.42;;;21.30;75.20;;;;;;5119447;27;20056;-87
2022/04/21 13:44:34;;;;;;;4.28;2.47;;;20.90;76.00;;;;;;5116780;27;20047;-86
2022/04/21 13:47:00;;;;;;;;;;;21.30;75.70;;;;;;5100275;27;20552;-86
2022/04/21 13:49:26;;;;;;;4.28;2.55;;;21.00;77.10;;;;;;5119172;27;19930;-85
2022/04/21 13:51:52;;;;;;;4.70;2.67;;;21.10;76.10;;;;;;5098555;27;20039;-86